Leavenworth, KS

3:24 AM CDT on May 28, 2015 (GMT -0500)
Kansas City Downtown | | Change Station
CLOSE
Current Station
Airport
Location: Kansas City,
Elevation: 758 ft
Nearby Weather Stations

Elev 758 ft 39.12 °N, 94.60 °W | Updated 30 minutes ago

Partly Cloudy
Partly Cloudy
66 °F
Feels Like 66 °F
N
5
Wind Variable Wind from ENE

Today
High -- | Low -- °F
--% Chance of Precip.
Yesterday
High -- | Low -- °F
Precip. -- in
5:57 AM 8:37 PM
Waxing Gibbous, 74% visible
Pressure 30.05 in
Visibility 10.0 miles
Clouds Scattered Clouds 5000 ft
Dew Point 57 °F
Humidity 73%
Rainfall 0.00 in
Snow Depth Not available.
UV 0 out of 12
Pollen 8.20 out of 12
Air Quality Not available.
Flu Activity No Activity
METAR KMKC 280754Z 07004KT 10SM SCT050 19/14 A3007 RMK AO2 SLP174 T01890139

More Conditions Fewer Conditions

Pressure 30.05 in
Visibility 10.0 miles
Clouds Scattered Clouds 5000 ft
Dew Point 57 °F
Humidity 73%
Rainfall 0.00 in
Snow Depth Not available.
UV 0 out of 12
Pollen 8.20 out of 12
Air Quality Not available.
Flu Activity No Activity
METAR KMKC 280754Z 07004KT 10SM SCT050 19/14 A3007 RMK AO2 SLP174 T01890139

More Conditions Fewer Conditions

10-Day Weather Forecast

Almanac

Astronomy

May. 28, 2015 Rise Set
Actual Time
Civil Twilight
Nautical Twilight
Astronomical Twilight
Moon
Length of Visible Light
Length of Day
Tomorrow will be .
, % of the Moon is Illuminated

Today's Extremes

State Highs State Lows

Community

WunderPhotos

Upload Photos

1,824,935 photos uploaded!

WunderBlogs® & News

Nearby

Air Quality

  Air Quality AQ Index Pollutant
Not available.

Snow Depth

Station Depth Elevation

Earthquake Activity

City Distance Mag. Time & Date
Minimum magnitude displayed is 2.5.

Coastal Water Temperatures

Place Temperature

Stations

Nearby Weather Stations

Station Location Temp. Windchill Dew Point Humidity Wind Precip. Elev Updated Type